Aérodrome :
LOGIN :

S'inscrire | Disclaimer

   EN    FR    IT 

 










Légende :    VFR   VFR Marginal   IFR   IFR Intensif   IFR Très Intensif
Visi : 
Plafond : 
>= 8 km
>= 3000ft
5 à 8 km
1000 à 3000 ft
1500m à 5 km
500 à 1000 ft
800 à 1500m
200 à 500 ft
< 800m
< 200 ft
Symboles :   Orages  Brouillard  Fortes neiges  Fortes précipitations  Vent > 20 kt
SIGMETs :   Divers  Orages  Givrage  Turbulence  Onde Orograph.  Cendres Volcan.






- Altitude de l'aérodrome : 3 ft
- Code IATA : DHR


EHKD - Den Helder De Kooy

DERNIER METAR :
  • 192125Z AUTO 20017KT 6000 DZ SCT005 BKN006 OVC010 06/06 Q1015 YLO

METARs EXPIRÉS :
  • 192118Z AUTO 20016KT 9999 DZ SCT006 BKN007 OVC009 06/06 Q1015 YLO
  • 192114Z AUTO 21015KT 180V240 9999 DZ BKN007 BKN008 OVC009 06/06 Q1015 GRN
  • 192055Z AUTO 21015KT 180V240 9000 DZ SCT007 BKN008 OVC009 06/06 Q1015 GRN 23017KT 8000 DZRA SCT012 OVC020 TEMPO SCT007
  • 192027Z AUTO 21012KT 9999 DZ FEW007 BKN010 OVC016 06/05 Q1016 GRN 23017KT 8000 DZRA SCT012 OVC020 TEMPO SCT007
  • 191957Z AUTO 22013KT 180V250 9000 DZ FEW011 SCT016 BKN021 06/05 Q1016 WHT 23017KT 8000 DZRA FEW012 SCT018 OVC025 TEMPO SCT012
  • 191946Z AUTO 22015KT 8000 DZ FEW013 SCT018 OVC025 07/05 Q1016 WHT 23017KT 9000 FEW012 SCT018 OVC025
  • 191934Z AUTO 22016KT 9999 FEW020 SCT024 BKN029 07/04 Q1016 WHT 23017KT 9999 SCT022 OVC030
  • 191925Z AUTO 22014KT 9999 BKN031 OVC036 07/04 Q1016 BLU 23013KT 9999 SCT022 BKN070
  • 191907Z AUTO 22011KT 190V250 9999 SCT019 BKN023 BKN027 07/04 Q1016 WHT 23013KT 9999 SCT022 BKN070
  • 191903Z AUTO 21011KT 180V240 9999 FEW019 SCT023 BKN030 07/04 Q1017 WHT 23013KT 9999 SCT022 BKN070

TAF TAF EHKD
Valide du 19 à 18h jusqu'au 20 à 06h UTC


191747Z 1918/2006 23012KT 9999 FEW025 BKN080
BECMG 1919/1921 21017G27KT
BECMG 1921/1923 -RA BKN012 OVC015
TEMPO 1922/2003 4000 RADZ SCT008 BKN010
BECMG 2003/2005 21022G35KT NSW SCT015 BKN025
PROB40
TEMPO 2003/2006 3000 -DZ SCT008 BKN012



MET'MAP, la Météo Aéronautique d'un coup d'oeil ! - Copyright ORBIFLY Décembre 2007 - Disclaimer

ORBIFLY MET'MAP TEAM :

Programmation & Développement : Alexandra Zaïnal
Sur une idée originale de : Baudouin d'Aumeries
Assistance à la programmation : Marc-Olivier Méhu
Soutien technique & logistique : Manuel Goepfert

Contact : metmap@orbifly.com




SOURCES & CREDITS :

   NOAA